createdAt,value
2018-02-14T00:00:40.134Z,100648.77
2018-02-14T00:03:07.862Z,100648.59
2018-02-14T00:05:35.615Z,100661.56
2018-02-14T00:08:03.322Z,100659.74
2018-02-14T00:10:30.994Z,100657.30
2018-02-14T00:12:58.691Z,100658.52
2018-02-14T00:15:26.421Z,100652.62
2018-02-14T00:17:54.127Z,100660.61
2018-02-14T00:20:21.883Z,100663.67
2018-02-14T00:22:49.580Z,100660.03
2018-02-14T00:25:17.302Z,100665.09
2018-02-14T00:27:45.015Z,100660.82
2018-02-14T00:30:12.738Z,100667.12
2018-02-14T00:32:40.430Z,100665.17
2018-02-14T00:35:08.103Z,100662.11
2018-02-14T00:37:35.882Z,100669.43
2018-02-14T00:40:03.527Z,100667.72
2018-02-14T00:42:32.666Z,100665.27
2018-02-14T00:45:00.327Z,100665.38
2018-02-14T00:47:28.008Z,100672.66
2018-02-14T00:49:55.708Z,100673.18
2018-02-14T00:52:23.398Z,100675.13
2018-02-14T00:54:51.077Z,100672.97
2018-02-14T00:57:18.766Z,100675.22
2018-02-14T00:59:46.433Z,100675.92
2018-02-14T01:02:14.123Z,100677.67
2018-02-14T01:04:41.830Z,100681.61
2018-02-14T01:07:09.531Z,100682.61
2018-02-14T01:09:37.271Z,100685.13
2018-02-14T01:12:05.102Z,100686.22
2018-02-14T01:14:32.766Z,100685.11
2018-02-14T01:17:00.682Z,100686.61
2018-02-14T01:19:28.346Z,100687.41
2018-02-14T01:21:56.049Z,100690.42
2018-02-14T01:24:23.719Z,100691.22
2018-02-14T01:26:51.405Z,100697.38
2018-02-14T01:29:19.082Z,100692.65
2018-02-14T01:31:46.873Z,100701.75
2018-02-14T01:34:14.538Z,100700.54
2018-02-14T01:36:42.246Z,100702.23
2018-02-14T01:39:09.914Z,100701.83
2018-02-14T01:41:37.696Z,100712.45
2018-02-14T01:44:05.382Z,100710.66
2018-02-14T01:46:33.058Z,100720.59
2018-02-14T01:49:00.758Z,100719.08
2018-02-14T01:51:28.625Z,100721.66
2018-02-14T01:53:56.419Z,100722.59
2018-02-14T01:56:24.098Z,100728.33
2018-02-14T01:58:51.769Z,100733.58
2018-02-14T02:01:19.433Z,100734.61
2018-02-14T02:03:47.292Z,100736.98
2018-02-14T02:06:14.957Z,100737.56
2018-02-14T02:08:42.648Z,100733.27
2018-02-14T02:11:10.305Z,100735.69
2018-02-14T02:13:37.992Z,100742.37
2018-02-14T02:16:05.646Z,100733.11
2018-02-14T02:18:33.343Z,100740.02
2018-02-14T02:21:01.039Z,100738.00
2018-02-14T02:23:28.714Z,100737.89
2018-02-14T02:25:56.379Z,100734.11
2018-02-14T02:28:24.079Z,100736.05
2018-02-14T02:30:51.799Z,100736.46
2018-02-14T02:33:19.510Z,100741.63
2018-02-14T02:35:47.176Z,100749.50
2018-02-14T02:38:14.871Z,100747.25
2018-02-14T02:40:42.547Z,100746.45
2018-02-14T02:43:10.239Z,100738.85
2018-02-14T02:45:37.897Z,100733.19
2018-02-14T02:48:05.601Z,100734.21
2018-02-14T02:50:33.237Z,100739.85
2018-02-14T02:53:00.935Z,100743.20
2018-02-14T02:55:28.646Z,100743.13
2018-02-14T02:57:56.372Z,100741.16
2018-02-14T03:00:24.035Z,100738.28
2018-02-14T03:02:51.735Z,100742.59
2018-02-14T03:05:19.401Z,100741.72
2018-02-14T03:07:47.118Z,100748.10
2018-02-14T03:10:14.761Z,100752.25
2018-02-14T03:12:42.449Z,100753.36
2018-02-14T03:15:10.109Z,100756.77
2018-02-14T03:17:37.807Z,100757.11
2018-02-14T03:20:05.466Z,100764.95
2018-02-14T03:22:33.153Z,100761.03
2018-02-14T03:25:00.831Z,100761.77
2018-02-14T03:27:28.525Z,100761.94
2018-02-14T03:29:56.208Z,100764.58
2018-02-14T03:32:23.889Z,100765.77
2018-02-14T03:34:51.557Z,100762.91
2018-02-14T03:37:19.262Z,100761.63
2018-02-14T03:39:46.942Z,100775.55
2018-02-14T03:42:14.616Z,100775.66
2018-02-14T03:44:42.350Z,100775.07
2018-02-14T03:47:10.057Z,100775.30
2018-02-14T03:49:37.943Z,100773.98
2018-02-14T03:52:05.649Z,100780.13
2018-02-14T03:54:33.303Z,100781.30
2018-02-14T03:57:00.986Z,100786.58
2018-02-14T03:59:28.678Z,100784.81
2018-02-14T04:01:56.363Z,100784.28
2018-02-14T04:04:24.020Z,100790.22
2018-02-14T04:06:51.925Z,100795.60
2018-02-14T04:09:19.585Z,100794.06
2018-02-14T04:11:47.265Z,100799.97
2018-02-14T04:14:14.933Z,100804.84
2018-02-14T04:16:42.630Z,100813.53
2018-02-14T04:19:10.294Z,100815.88
2018-02-14T04:21:38.001Z,100817.07
2018-02-14T04:24:05.653Z,100816.78
2018-02-14T04:26:33.363Z,100818.94
2018-02-14T04:29:01.038Z,100816.89
2018-02-14T04:31:28.748Z,100820.19
2018-02-14T04:33:56.402Z,100825.70
2018-02-14T04:36:24.101Z,100829.81
2018-02-14T04:38:51.771Z,100828.50
2018-02-14T04:41:19.466Z,100832.19
2018-02-14T04:43:47.214Z,100832.80
2018-02-14T04:46:14.898Z,100837.16
2018-02-14T04:48:42.565Z,100838.76
2018-02-14T04:51:10.264Z,100838.13
2018-02-14T04:53:37.944Z,100836.23
2018-02-14T04:56:05.650Z,100839.17
2018-02-14T04:58:33.304Z,100844.63
2018-02-14T05:01:00.961Z,100842.06
2018-02-14T05:03:28.674Z,100848.16
2018-02-14T05:05:56.332Z,100848.33
2018-02-14T05:08:24.026Z,100851.44
2018-02-14T05:10:51.756Z,100850.92
2018-02-14T05:13:19.439Z,100855.59
2018-02-14T05:15:47.100Z,100852.13
2018-02-14T05:18:14.785Z,100853.26
2018-02-14T05:20:42.466Z,100853.47
2018-02-14T05:23:10.282Z,100856.58
2018-02-14T05:25:37.933Z,100854.43
2018-02-14T05:28:05.643Z,100854.14
2018-02-14T05:30:33.381Z,100858.44
2018-02-14T05:33:01.106Z,100861.29
2018-02-14T05:35:28.822Z,100862.52
2018-02-14T05:37:56.523Z,100855.23
2018-02-14T05:40:24.177Z,100856.83
2018-02-14T05:42:51.878Z,100863.66
2018-02-14T05:45:19.557Z,100861.95
2018-02-14T05:47:47.298Z,100867.48
2018-02-14T05:50:14.964Z,100866.84
2018-02-14T05:52:42.753Z,100872.61
2018-02-14T05:55:10.434Z,100873.31
2018-02-14T05:57:38.140Z,100874.02
2018-02-14T06:00:05.798Z,100876.13
2018-02-14T06:02:33.537Z,100872.51
2018-02-14T06:05:01.215Z,100881.30
2018-02-14T06:07:28.910Z,100877.54
2018-02-14T06:09:56.598Z,100878.17
2018-02-14T06:12:24.326Z,100871.55
2018-02-14T06:14:52.006Z,100873.58
2018-02-14T06:17:19.754Z,100877.20
2018-02-14T06:19:47.413Z,100880.05
2018-02-14T06:22:15.113Z,100883.66
2018-02-14T06:24:42.821Z,100881.50
2018-02-14T06:27:10.522Z,100882.52
2018-02-14T06:29:38.204Z,100889.32
2018-02-14T06:32:05.914Z,100894.25
2018-02-14T06:34:33.569Z,100895.38
2018-02-14T06:37:01.321Z,100890.36
2018-02-14T06:39:28.995Z,100897.44
2018-02-14T06:41:56.721Z,100897.08
2018-02-14T06:44:24.437Z,100889.33
2018-02-14T06:46:52.158Z,100891.78
2018-02-14T06:49:19.836Z,100885.68
2018-02-14T06:51:47.625Z,100885.64
2018-02-14T06:54:15.287Z,100901.54
2018-02-14T06:56:42.946Z,100900.31
2018-02-14T06:59:10.792Z,100898.39
2018-02-14T07:01:38.446Z,100904.63
2018-02-14T07:04:06.138Z,100903.23
2018-02-14T07:06:33.793Z,100903.55
2018-02-14T07:09:01.578Z,100908.33
2018-02-14T07:11:29.307Z,100916.24
2018-02-14T07:13:56.968Z,100929.55
2018-02-14T07:16:24.678Z,100924.66
2018-02-14T07:18:53.067Z,100930.55
2018-02-14T07:21:20.773Z,100940.14
2018-02-14T07:23:48.470Z,100947.22
2018-02-14T07:26:16.168Z,100948.25
2018-02-14T07:28:43.858Z,100951.20
2018-02-14T07:31:11.553Z,100948.01
2018-02-14T07:33:39.235Z,100959.45
2018-02-14T07:36:06.934Z,100960.61
2018-02-14T07:38:34.606Z,100962.54
2018-02-14T07:41:02.334Z,100959.30
2018-02-14T07:43:30.007Z,100951.13
2018-02-14T07:45:57.706Z,100953.80
2018-02-14T07:48:25.421Z,100954.27
2018-02-14T07:50:53.272Z,100959.48
2018-02-14T07:53:20.949Z,100964.16
2018-02-14T07:55:48.808Z,100971.91
2018-02-14T07:58:16.469Z,100972.45
2018-02-14T08:00:44.336Z,100982.98
2018-02-14T08:03:11.992Z,100986.17
2018-02-14T08:05:40.683Z,100986.85
2018-02-14T08:08:08.402Z,100984.88
2018-02-14T08:10:36.065Z,100989.17
2018-02-14T08:13:03.763Z,100994.28
2018-02-14T08:15:31.446Z,100995.03
2018-02-14T08:17:59.171Z,100987.91
2018-02-14T08:20:26.864Z,100991.31
2018-02-14T08:22:54.559Z,100992.48
2018-02-14T08:25:22.239Z,100987.47
2018-02-14T08:27:49.939Z,100981.72
2018-02-14T08:30:17.585Z,100988.84
2018-02-14T08:32:45.297Z,100992.98
2018-02-14T08:35:12.983Z,100993.02
2018-02-14T08:37:40.747Z,101002.91
2018-02-14T08:40:08.422Z,101003.64
2018-02-14T08:42:36.114Z,101014.21
2018-02-14T08:45:03.766Z,101019.83
2018-02-14T08:47:31.467Z,101020.44
2018-02-14T08:49:59.133Z,101026.73
2018-02-14T08:52:26.850Z,101030.52
2018-02-14T08:54:54.501Z,101029.95
2018-02-14T08:57:22.222Z,101028.19
2018-02-14T08:59:49.946Z,101031.75
2018-02-14T09:02:17.654Z,101032.92
2018-02-14T09:04:45.320Z,101039.95
2018-02-14T09:07:13.018Z,101037.92
2018-02-14T09:09:40.687Z,101032.35
2018-02-14T09:12:08.398Z,101029.77
2018-02-14T09:14:36.121Z,101033.20
2018-02-14T09:17:03.852Z,101032.63
2018-02-14T09:19:31.525Z,101042.75
2018-02-14T09:21:59.237Z,101053.27
2018-02-14T09:24:26.927Z,101049.14
2018-02-14T09:26:54.642Z,101045.33
2018-02-14T09:29:22.303Z,101045.91
2018-02-14T09:31:50.008Z,101042.51
2018-02-14T09:34:17.713Z,101042.44
2018-02-14T09:36:45.418Z,101043.08
2018-02-14T09:39:13.101Z,101048.79
2018-02-14T09:41:40.806Z,101044.86
2018-02-14T09:44:08.587Z,101047.04
2018-02-14T09:46:36.312Z,101054.05
2018-02-14T09:49:04.103Z,101059.84
2018-02-14T09:51:31.794Z,101060.00
2018-02-14T09:53:59.472Z,101060.66
2018-02-14T09:56:27.166Z,101060.28
2018-02-14T09:58:54.861Z,101045.84
2018-02-14T10:01:22.569Z,101038.14
2018-02-14T10:03:50.232Z,101043.86
2018-02-14T10:06:17.946Z,101044.87
2018-02-14T10:08:45.647Z,101042.54
2018-02-14T10:11:13.402Z,101053.71
2018-02-14T10:13:41.041Z,101047.73
2018-02-14T10:16:08.778Z,101047.52
2018-02-14T10:18:36.457Z,101045.89
2018-02-14T10:21:04.205Z,101038.22
2018-02-14T10:23:31.922Z,101040.41
2018-02-14T10:25:59.603Z,101037.21
2018-02-14T10:28:27.282Z,101039.50
2018-02-14T10:30:55.110Z,101040.30
2018-02-14T10:33:22.775Z,101036.95
2018-02-14T10:35:50.402Z,101038.18
2018-02-14T10:38:18.082Z,101034.81
2018-02-14T10:40:45.778Z,101032.42
2018-02-14T10:43:13.399Z,101028.28
2018-02-14T10:45:40.998Z,101036.56
2018-02-14T10:48:08.634Z,101035.31
2018-02-14T10:50:37.279Z,101037.31
2018-02-14T10:53:04.905Z,101024.47
2018-02-14T10:55:32.498Z,101025.81
2018-02-14T10:58:00.126Z,101028.31
2018-02-14T11:00:33.112Z,101027.04
2018-02-14T11:06:19.287Z,101018.73
2018-02-14T11:08:46.911Z,101023.70
2018-02-14T11:11:14.546Z,101025.66
2018-02-14T11:13:42.158Z,101023.42
2018-02-14T11:16:09.819Z,101030.77
2018-02-14T11:18:37.602Z,101039.48
2018-02-14T11:23:32.222Z,101023.10
2018-02-14T11:25:59.874Z,101020.52
2018-02-14T11:28:27.484Z,101020.22
2018-02-14T11:30:55.122Z,101014.48
2018-02-14T11:33:22.832Z,101014.06
2018-02-14T11:35:50.482Z,101018.28
2018-02-14T11:38:18.409Z,101012.47
2018-02-14T11:40:46.318Z,101013.61
2018-02-14T11:43:13.917Z,101019.82
2018-02-14T11:45:41.511Z,101017.86
2018-02-14T11:48:09.156Z,101017.27
2018-02-14T11:50:39.434Z,101016.21
2018-02-14T11:53:07.094Z,101025.04
2018-02-14T11:55:34.721Z,101016.27
2018-02-14T11:58:02.390Z,101026.69
2018-02-14T12:00:29.977Z,101024.14
2018-02-14T12:02:57.626Z,101028.03
2018-02-14T12:05:25.242Z,101025.48
2018-02-14T12:07:52.869Z,101027.94
2018-02-14T12:10:20.475Z,101030.92
2018-02-14T12:12:48.106Z,101022.45
2018-02-14T12:15:15.726Z,101025.66
2018-02-14T12:17:43.349Z,101017.81
2018-02-14T12:20:11.019Z,101024.25
2018-02-14T12:22:38.669Z,101002.34
2018-02-14T12:25:06.266Z,101021.11
2018-02-14T12:27:33.902Z,101016.41
2018-02-14T12:30:01.515Z,101017.50
2018-02-14T12:32:29.143Z,101005.88
2018-02-14T12:34:56.754Z,101000.30
2018-02-14T12:37:24.402Z,101004.59
2018-02-14T12:39:52.015Z,100991.22
2018-02-14T12:42:19.663Z,100992.93
2018-02-14T12:44:47.287Z,100999.51
2018-02-14T12:47:15.039Z,100994.47
2018-02-14T12:49:42.648Z,100992.98
2018-02-14T12:52:10.307Z,100986.97
2018-02-14T12:54:37.927Z,100984.50
2018-02-14T12:57:05.615Z,100978.41
2018-02-14T12:59:33.240Z,100979.92
2018-02-14T13:02:01.006Z,100974.44
2018-02-14T13:04:28.638Z,100972.88
2018-02-14T13:06:56.261Z,100958.45
2018-02-14T13:09:23.857Z,100965.11
2018-02-14T13:11:51.578Z,100954.78
2018-02-14T13:14:19.217Z,100954.53
2018-02-14T13:16:46.843Z,100956.56
2018-02-14T13:19:14.451Z,100963.36
2018-02-14T13:21:42.095Z,100960.91
2018-02-14T13:24:09.706Z,100963.96
2018-02-14T13:26:37.369Z,100961.19
2018-02-14T13:29:05.058Z,100964.20
2018-02-14T13:31:32.691Z,100969.66
2018-02-14T13:34:00.278Z,100968.33
2018-02-14T13:36:27.918Z,100966.98
2018-02-14T13:38:55.558Z,100957.64
2018-02-14T13:41:23.348Z,100952.22
2018-02-14T13:43:51.010Z,100948.36
2018-02-14T13:46:18.657Z,100955.91
2018-02-14T13:48:46.302Z,100953.62
2018-02-14T13:51:13.909Z,100940.34
2018-02-14T13:53:41.522Z,100940.05
2018-02-14T13:56:09.273Z,100931.45
2018-02-14T13:58:36.870Z,100940.63
2018-02-14T14:01:04.641Z,100943.91
2018-02-14T14:03:32.259Z,100936.78
2018-02-14T14:05:59.885Z,100943.21
2018-02-14T14:08:27.551Z,100959.58
2018-02-14T14:10:55.187Z,100956.39
2018-02-14T14:13:22.797Z,100958.51
2018-02-14T14:15:50.447Z,100957.58
2018-02-14T14:18:18.038Z,100947.09
2018-02-14T14:20:45.693Z,100929.43
2018-02-14T14:23:13.283Z,100931.63
2018-02-14T14:25:41.063Z,100936.68
2018-02-14T14:28:08.658Z,100943.49
2018-02-14T14:30:36.283Z,100944.46
2018-02-14T14:33:03.910Z,100934.34
2018-02-14T14:35:31.530Z,100932.17
2018-02-14T14:37:59.145Z,100935.16
2018-02-14T14:40:26.773Z,100925.86
2018-02-14T14:42:54.521Z,100938.45
2018-02-14T14:45:22.147Z,100943.15
2018-02-14T14:47:49.764Z,100935.91
2018-02-14T14:50:17.394Z,100934.59
2018-02-14T14:52:44.987Z,100941.48
2018-02-14T14:55:12.626Z,100946.06
2018-02-14T14:57:40.235Z,100949.95
2018-02-14T15:00:07.886Z,100946.47
2018-02-14T15:02:35.477Z,100944.17
2018-02-14T15:05:03.232Z,100953.98
2018-02-14T15:07:30.846Z,100934.66
2018-02-14T15:09:58.550Z,100934.09
2018-02-14T15:12:26.138Z,100937.63
2018-02-14T15:14:53.795Z,100943.27
2018-02-14T15:17:21.383Z,100944.94
2018-02-14T15:19:49.055Z,100946.28
2018-02-14T15:22:16.650Z,100941.93
2018-02-14T15:24:44.303Z,100945.00
2018-02-14T15:27:11.928Z,100936.33
2018-02-14T15:29:39.654Z,100936.58
2018-02-14T15:32:07.199Z,100937.25
2018-02-14T15:34:34.797Z,100932.95
2018-02-14T15:37:02.406Z,100933.04
2018-02-14T15:39:30.045Z,100940.10
2018-02-14T15:41:57.639Z,100941.02
2018-02-14T15:44:25.303Z,100937.12
2018-02-14T15:46:52.923Z,100935.41
2018-02-14T15:49:20.543Z,100938.55
2018-02-14T15:51:48.133Z,100940.96
2018-02-14T15:54:15.750Z,100942.41
2018-02-14T15:56:43.365Z,100947.62
2018-02-14T15:59:11.021Z,100962.15
2018-02-14T16:01:38.594Z,100963.25
2018-02-14T16:04:06.232Z,100965.83
2018-02-14T16:06:33.838Z,100968.02
2018-02-14T16:09:01.549Z,100966.67
2018-02-14T16:11:29.162Z,100960.23
2018-02-14T16:13:56.906Z,100962.87
2018-02-14T16:16:24.560Z,100959.66
2018-02-14T16:18:52.170Z,100957.44
2018-02-14T16:21:19.782Z,100955.25
2018-02-14T16:23:47.394Z,100959.28
2018-02-14T16:26:15.039Z,100952.89
2018-02-14T16:28:42.691Z,100961.78
2018-02-14T16:31:10.321Z,100955.98
2018-02-14T16:33:37.910Z,100960.81
2018-02-14T16:36:05.523Z,100956.94
2018-02-14T16:38:33.186Z,100957.96
2018-02-14T16:41:00.814Z,100972.77
2018-02-14T16:43:28.418Z,100971.81
2018-02-14T16:45:56.039Z,100979.13
2018-02-14T16:48:23.640Z,100981.23
2018-02-14T16:50:51.253Z,100993.91
2018-02-14T16:53:18.853Z,100988.18
2018-02-14T16:55:46.478Z,100993.25
2018-02-14T16:58:14.074Z,101000.20
2018-02-14T17:00:41.708Z,101001.25
2018-02-14T17:03:09.410Z,101012.09
2018-02-14T17:05:37.120Z,101013.94
2018-02-14T17:08:04.821Z,101015.63
2018-02-14T17:10:32.449Z,101027.58
2018-02-14T17:13:00.031Z,101032.94
2018-02-14T17:15:27.675Z,101027.74
2018-02-14T17:17:55.346Z,101034.71
2018-02-14T17:20:23.096Z,101029.63
2018-02-14T17:22:50.693Z,101033.19
2018-02-14T17:25:18.353Z,101028.93
2018-02-14T17:27:45.955Z,101030.52
2018-02-14T17:30:13.716Z,101023.73
2018-02-14T17:32:41.360Z,101029.34
2018-02-14T17:35:08.983Z,101035.75
2018-02-14T17:37:36.615Z,101022.42
2018-02-14T17:40:04.264Z,101010.09
2018-02-14T17:42:31.898Z,101009.37
2018-02-14T17:44:59.542Z,100995.95
2018-02-14T17:47:27.151Z,100982.05
2018-02-14T17:49:54.789Z,100977.03
2018-02-14T17:52:22.426Z,100986.23
2018-02-14T17:54:50.066Z,100982.66
2018-02-14T17:57:17.669Z,100990.94
2018-02-14T17:59:45.282Z,101001.54
2018-02-14T18:02:12.879Z,100999.56
2018-02-14T18:04:40.503Z,100999.92
2018-02-14T18:07:08.251Z,100995.67
2018-02-14T18:09:35.932Z,100988.71
2018-02-14T18:12:03.610Z,100989.52
2018-02-14T18:14:31.277Z,100989.84
2018-02-14T18:16:58.916Z,100987.22
2018-02-14T18:19:26.522Z,100981.85
2018-02-14T18:21:54.161Z,100981.73
2018-02-14T18:24:21.837Z,100990.13
2018-02-14T18:26:49.553Z,100998.88
2018-02-14T18:29:17.305Z,100977.27
2018-02-14T18:31:44.938Z,100969.85
2018-02-14T18:34:12.859Z,100957.44
2018-02-14T18:36:40.500Z,100950.83
2018-02-14T18:39:08.115Z,100959.27
2018-02-14T18:41:35.770Z,100962.36
2018-02-14T18:44:03.427Z,100969.61
2018-02-14T18:46:31.165Z,100974.29
2018-02-14T18:48:58.877Z,100977.95
2018-02-14T18:51:26.575Z,100967.04
2018-02-14T18:53:54.248Z,100959.03
2018-02-14T18:56:21.911Z,100967.15
2018-02-14T18:58:49.527Z,100964.23
2018-02-14T19:01:17.154Z,100963.82
2018-02-14T19:03:44.888Z,100946.73
2018-02-14T19:06:12.521Z,100944.66
2018-02-14T19:08:40.111Z,100942.66
2018-02-14T19:11:07.749Z,100940.44
2018-02-14T19:13:35.422Z,100945.32
2018-02-14T19:16:03.229Z,100938.92
2018-02-14T19:18:30.928Z,100930.66
2018-02-14T19:20:58.553Z,100927.54
2018-02-14T19:23:26.205Z,100927.70
2018-02-14T19:25:53.837Z,100925.57
2018-02-14T19:28:21.513Z,100911.53
2018-02-14T19:30:49.243Z,100905.41
2018-02-14T19:33:16.930Z,100908.69
2018-02-14T19:35:44.699Z,100902.66
2018-02-14T19:38:12.374Z,100907.69
2018-02-14T19:40:40.009Z,100910.02
2018-02-14T19:43:07.662Z,100908.41
2018-02-14T19:45:35.358Z,100906.50
2018-02-14T19:48:02.980Z,100903.97
2018-02-14T19:50:30.714Z,100916.77
2018-02-14T19:52:58.396Z,100903.77
2018-02-14T19:55:26.118Z,100912.94
2018-02-14T19:57:53.769Z,100924.74
2018-02-14T20:00:21.488Z,100922.89
2018-02-14T20:02:49.194Z,100916.70
2018-02-14T20:05:16.916Z,100911.19
2018-02-14T20:07:44.593Z,100910.41
2018-02-14T20:10:12.290Z,100913.97
2018-02-14T20:12:39.980Z,100918.06
2018-02-14T20:15:07.683Z,100920.41
2018-02-14T20:17:35.355Z,100908.69
2018-02-14T20:20:03.090Z,100905.78
2018-02-14T20:22:30.765Z,100907.39
2018-02-14T20:24:58.462Z,100903.35
2018-02-14T20:27:26.262Z,100906.48
2018-02-14T20:29:53.966Z,100899.98
2018-02-14T20:32:21.566Z,100905.38
2018-02-14T20:34:49.272Z,100909.86
2018-02-14T20:37:16.967Z,100902.53
2018-02-14T20:39:44.692Z,100909.36
2018-02-14T20:42:12.398Z,100914.95
2018-02-14T20:44:40.111Z,100916.49
2018-02-14T20:47:07.789Z,100911.69
2018-02-14T20:49:35.511Z,100900.31
2018-02-14T20:52:03.310Z,100896.97
2018-02-14T20:54:31.034Z,100888.20
2018-02-14T20:56:58.716Z,100887.99
2018-02-14T20:59:26.436Z,100890.15
2018-02-14T21:01:54.153Z,100891.47
2018-02-14T21:04:21.872Z,100899.20
2018-02-14T21:06:49.507Z,100892.58
2018-02-14T21:09:17.220Z,100884.23
2018-02-14T21:11:44.894Z,100879.84
2018-02-14T21:14:12.607Z,100884.23
2018-02-14T21:16:40.282Z,100889.62
2018-02-14T21:19:07.991Z,100880.37
2018-02-14T21:21:35.730Z,100872.02
2018-02-14T21:24:03.435Z,100870.90
2018-02-14T21:26:31.111Z,100864.91
2018-02-14T21:28:58.832Z,100863.27
2018-02-14T21:31:26.525Z,100860.41
2018-02-14T21:33:54.242Z,100853.90
2018-02-14T21:36:21.831Z,100855.81
2018-02-14T21:38:49.579Z,100859.18
2018-02-14T21:41:17.290Z,100861.73
2018-02-14T21:43:45.009Z,100859.59
2018-02-14T21:46:12.727Z,100858.66
2018-02-14T21:48:40.416Z,100870.77
2018-02-14T21:51:08.123Z,100862.30
2018-02-14T21:53:35.888Z,100859.28
2018-02-14T21:56:03.606Z,100856.11
2018-02-14T21:58:31.375Z,100857.32
2018-02-14T22:00:59.057Z,100847.85
2018-02-14T22:03:26.756Z,100841.77
2018-02-14T22:05:54.459Z,100836.67
2018-02-14T22:08:22.097Z,100824.13
2018-02-14T22:10:49.714Z,100816.09
2018-02-14T22:13:17.347Z,100809.20
2018-02-14T22:15:44.952Z,100817.14
2018-02-14T22:18:12.653Z,100811.23
2018-02-14T22:20:40.502Z,100803.08
2018-02-14T22:23:08.247Z,100790.28
2018-02-14T22:25:36.021Z,100787.84
2018-02-14T22:28:03.715Z,100770.13
2018-02-14T22:30:31.412Z,100764.23
2018-02-14T22:32:59.230Z,100756.98
2018-02-14T22:35:26.898Z,100761.36
2018-02-14T22:37:54.617Z,100767.25
2018-02-14T22:40:22.334Z,100771.92
2018-02-14T22:42:50.011Z,100763.38
2018-02-14T22:45:17.727Z,100766.33
2018-02-14T22:47:45.398Z,100753.09
2018-02-14T22:50:13.110Z,100769.97
2018-02-14T22:52:40.738Z,100773.25
2018-02-14T22:55:08.377Z,100781.17
2018-02-14T22:57:36.032Z,100791.76
2018-02-14T23:00:03.740Z,100792.66
2018-02-14T23:02:31.406Z,100794.78
2018-02-14T23:04:59.102Z,100795.09
2018-02-14T23:07:26.833Z,100797.63
2018-02-14T23:09:54.537Z,100804.03
2018-02-14T23:12:22.350Z,100807.40
2018-02-14T23:14:50.080Z,100804.45
2018-02-14T23:17:17.758Z,100803.13
2018-02-14T23:19:45.459Z,100812.49
2018-02-14T23:22:13.190Z,100813.83
2018-02-14T23:24:40.957Z,100800.49
2018-02-14T23:27:08.629Z,100801.91
2018-02-14T23:29:36.360Z,100795.20
2018-02-14T23:32:04.096Z,100795.42
2018-02-14T23:34:31.793Z,100793.78
2018-02-14T23:36:59.482Z,100792.14
2018-02-14T23:39:27.178Z,100784.51
2018-02-14T23:41:54.860Z,100772.92
2018-02-14T23:44:22.615Z,100763.34
2018-02-14T23:46:50.316Z,100744.12
2018-02-14T23:49:18.026Z,100737.73
2018-02-14T23:51:45.713Z,100727.09
2018-02-14T23:54:13.544Z,100726.93
2018-02-14T23:56:41.229Z,100714.41
2018-02-14T23:59:08.938Z,100714.21
